createdAt,value
2022-08-05T00:01:27.822Z,20.29
2022-08-05T00:06:35.977Z,20.16
2022-08-05T00:11:49.049Z,20.14
2022-08-05T00:16:54.484Z,20.13
2022-08-05T00:21:57.809Z,20.05
2022-08-05T00:27:01.793Z,20.00
2022-08-05T00:32:15.003Z,20.02
2022-08-05T00:37:18.963Z,20.01
2022-08-05T00:42:32.641Z,20.05
2022-08-05T00:47:57.229Z,19.92
2022-08-05T00:53:01.518Z,19.82
2022-08-05T00:58:05.466Z,19.67
2022-08-05T01:03:22.558Z,19.76
2022-08-05T01:08:41.291Z,19.80
2022-08-05T01:13:59.175Z,19.81
2022-08-05T01:19:14.335Z,19.80
2022-08-05T01:24:35.082Z,19.78
2022-08-05T01:29:46.397Z,19.78
2022-08-05T01:34:54.726Z,19.72
2022-08-05T01:39:59.909Z,19.68
2022-08-05T01:45:08.251Z,19.68
2022-08-05T01:50:15.972Z,19.62
2022-08-05T01:55:23.702Z,19.67
2022-08-05T02:00:31.076Z,19.69
2022-08-05T02:05:37.928Z,19.69
2022-08-05T02:10:51.521Z,19.74
2022-08-05T02:16:04.924Z,19.78
2022-08-05T02:21:14.950Z,19.80
2022-08-05T02:26:26.505Z,19.96
2022-08-05T02:31:34.981Z,20.09
2022-08-05T02:36:43.782Z,20.26
2022-08-05T02:42:01.294Z,20.43
2022-08-05T02:47:09.260Z,20.65
2022-08-05T02:52:30.132Z,20.84
2022-08-05T02:58:11.119Z,21.06
2022-08-05T03:03:00.081Z,21.31
2022-08-05T03:08:08.769Z,21.52
2022-08-05T03:13:17.149Z,21.80
2022-08-05T03:18:30.087Z,22.14
2022-08-05T03:23:35.155Z,22.39
2022-08-05T03:28:41.928Z,22.73
2022-08-05T03:33:53.038Z,23.16
2022-08-05T03:38:56.752Z,23.38
2022-08-05T03:44:10.196Z,23.69
2022-08-05T03:49:16.857Z,23.87
2022-08-05T03:55:06.865Z,24.18
2022-08-05T03:59:59.489Z,25.59
2022-08-05T04:05:10.145Z,28.68
2022-08-05T04:10:14.099Z,27.86
2022-08-05T04:15:21.124Z,26.76
2022-08-05T04:20:29.542Z,26.26
2022-08-05T04:25:57.096Z,26.27
2022-08-05T04:30:58.704Z,26.24
2022-08-05T04:36:46.241Z,25.97
2022-08-05T04:41:37.744Z,25.50
2022-08-05T04:46:42.219Z,25.41
2022-08-05T04:52:00.215Z,25.53
2022-08-05T04:57:04.029Z,25.56
2022-08-05T05:02:41.368Z,25.59
2022-08-05T05:07:35.553Z,25.80
2022-08-05T05:12:39.325Z,25.70
2022-08-05T05:17:56.658Z,26.05
2022-08-05T05:23:08.423Z,26.50
2022-08-05T05:28:24.877Z,27.87
2022-08-05T05:33:28.289Z,30.80
2022-08-05T05:38:48.109Z,31.35
2022-08-05T05:43:58.579Z,29.96
2022-08-05T05:49:06.461Z,29.30
2022-08-05T05:54:49.968Z,28.80
2022-08-05T05:59:50.502Z,28.64
2022-08-05T06:04:56.192Z,28.76
2022-08-05T06:10:10.860Z,28.89
2022-08-05T06:15:24.204Z,31.55
2022-08-05T06:20:28.045Z,35.24
2022-08-05T06:26:13.208Z,39.34
2022-08-05T06:30:57.169Z,41.10
2022-08-05T06:36:07.208Z,42.53
2022-08-05T06:41:14.805Z,44.67
2022-08-05T06:46:18.286Z,43.59
2022-08-05T06:51:29.422Z,41.79
2022-08-05T06:56:35.279Z,40.00
2022-08-05T07:01:40.545Z,41.01
2022-08-05T07:06:45.592Z,43.30
2022-08-05T07:11:55.944Z,45.37
2022-08-05T07:18:01.761Z,45.80
2022-08-05T07:22:30.239Z,46.45
2022-08-05T07:27:57.742Z,46.22
2022-08-05T07:32:58.602Z,47.58
2022-08-05T07:38:01.999Z,48.22
2022-08-05T07:43:14.451Z,47.69
2022-08-05T07:49:00.468Z,47.56
2022-08-05T07:53:50.585Z,46.46
2022-08-05T07:58:58.912Z,46.73
2022-08-05T08:04:03.183Z,47.75
2022-08-05T08:09:07.632Z,47.36
2022-08-05T08:14:12.495Z,45.77
2022-08-05T08:20:21.020Z,45.40
2022-08-05T08:24:51.928Z,42.90
2022-08-05T08:30:05.571Z,42.05
2022-08-05T08:35:21.049Z,41.00
2022-08-05T08:40:31.197Z,40.32
2022-08-05T08:45:39.174Z,40.19
2022-08-05T08:51:03.251Z,39.30
2022-08-05T08:56:08.858Z,38.28
2022-08-05T09:01:15.855Z,37.59
2022-08-05T09:06:21.321Z,37.22
2022-08-05T09:11:53.472Z,36.55
2022-08-05T09:16:53.003Z,36.38
2022-08-05T09:22:22.912Z,35.28
2022-08-05T09:28:03.962Z,35.39
2022-08-05T09:33:04.745Z,35.13
2022-08-05T09:38:16.252Z,34.55
2022-08-05T09:43:41.139Z,34.57
2022-08-05T09:48:55.434Z,33.81
2022-08-05T09:54:11.527Z,33.96
2022-08-05T09:59:17.509Z,33.26
2022-08-05T10:04:29.203Z,33.06
2022-08-05T10:09:45.148Z,33.38
2022-08-05T10:14:48.938Z,34.04
2022-08-05T10:20:04.076Z,34.64
2022-08-05T10:25:14.378Z,34.31
2022-08-05T10:31:20.185Z,34.15
2022-08-05T10:35:44.076Z,34.23
2022-08-05T10:40:58.430Z,34.33
2022-08-05T10:46:06.795Z,33.84
2022-08-05T10:51:22.327Z,32.98
2022-08-05T10:56:28.702Z,32.74
2022-08-05T11:01:55.362Z,33.02
2022-08-05T11:07:09.288Z,32.74
2022-08-05T11:12:50.379Z,32.63
2022-08-05T11:18:11.715Z,32.98
2022-08-05T11:23:33.615Z,32.86
2022-08-05T11:29:37.315Z,32.82
2022-08-05T11:34:59.584Z,32.73
2022-08-05T11:40:04.731Z,32.53
2022-08-05T11:45:14.248Z,32.46
2022-08-05T11:50:27.457Z,32.52
2022-08-05T11:55:36.512Z,32.83
2022-08-05T12:00:44.324Z,32.99
2022-08-05T12:05:50.493Z,32.86
2022-08-05T12:10:58.203Z,32.67
2022-08-05T12:16:01.603Z,32.38
2022-08-05T12:21:12.706Z,32.58
2022-08-05T12:26:17.608Z,32.95
2022-08-05T12:31:28.039Z,33.04
2022-08-05T12:36:44.859Z,33.36
2022-08-05T12:41:51.314Z,33.56
2022-08-05T12:47:01.810Z,33.23
2022-08-05T12:52:12.037Z,32.91
2022-08-05T12:57:24.002Z,32.81
2022-08-05T13:02:30.454Z,32.72
2022-08-05T13:07:59.199Z,32.75
2022-08-05T13:12:58.922Z,32.86
2022-08-05T13:18:02.486Z,32.73
2022-08-05T13:23:07.318Z,32.13
2022-08-05T13:28:13.048Z,32.12
2022-08-05T13:34:20.218Z,31.82
2022-08-05T13:38:42.773Z,31.87
2022-08-05T13:43:54.726Z,31.94
2022-08-05T13:49:00.897Z,31.92
2022-08-05T13:54:12.935Z,31.97
2022-08-05T13:59:20.277Z,32.22
2022-08-05T14:04:41.597Z,32.44
2022-08-05T14:09:46.510Z,32.31
2022-08-05T14:14:52.088Z,32.13
2022-08-05T14:20:01.030Z,31.94
2022-08-05T14:25:21.717Z,31.55
2022-08-05T14:30:28.390Z,31.36
2022-08-05T14:35:37.280Z,31.48
2022-08-05T14:40:53.814Z,31.26
2022-08-05T14:45:58.545Z,30.96
2022-08-05T14:51:01.875Z,31.06
2022-08-05T14:56:07.041Z,31.18
2022-08-05T15:01:15.518Z,31.19
2022-08-05T15:06:20.318Z,30.98
2022-08-05T15:11:52.478Z,30.98
2022-08-05T15:16:56.785Z,31.07
2022-08-05T15:22:01.457Z,30.92
2022-08-05T15:27:09.064Z,30.77
2022-08-05T15:32:14.236Z,30.70
2022-08-05T15:37:22.202Z,30.56
2022-08-05T15:42:55.266Z,30.57
2022-08-05T15:48:04.523Z,30.42
2022-08-05T15:53:09.208Z,30.43
2022-08-05T15:58:16.789Z,30.40
2022-08-05T16:03:21.637Z,30.30
2022-08-05T16:08:25.083Z,30.20
2022-08-05T16:13:35.103Z,30.14
2022-08-05T16:18:51.700Z,30.03
2022-08-05T16:23:58.013Z,29.80
2022-08-05T16:29:02.467Z,29.57
2022-08-05T16:34:07.954Z,29.34
2022-08-05T16:39:13.835Z,29.14
2022-08-05T16:44:18.713Z,28.90
2022-08-05T16:49:26.698Z,28.64
2022-08-05T16:54:33.037Z,28.52
2022-08-05T17:00:00.311Z,28.41
2022-08-05T17:05:01.400Z,28.28
2022-08-05T17:10:07.118Z,28.03
2022-08-05T17:15:15.698Z,27.86
2022-08-05T17:20:24.963Z,27.77
2022-08-05T17:25:40.198Z,27.59
2022-08-05T17:30:52.059Z,27.47
2022-08-05T17:36:07.464Z,27.33
2022-08-05T17:42:16.619Z,27.16
2022-08-05T17:46:36.477Z,26.96
2022-08-05T17:51:41.452Z,26.92
2022-08-05T17:56:45.144Z,26.80
2022-08-05T18:01:52.551Z,26.64
2022-08-05T18:07:01.106Z,26.48
2022-08-05T18:12:05.072Z,26.17
2022-08-05T18:17:58.926Z,25.87
2022-08-05T18:22:36.208Z,25.64
2022-08-05T18:27:51.968Z,25.48
2022-08-05T18:33:00.418Z,25.30
2022-08-05T18:38:05.802Z,24.93
2022-08-05T18:43:16.351Z,24.92
2022-08-05T18:48:30.736Z,24.72
2022-08-05T18:53:45.789Z,24.61
2022-08-05T18:58:54.960Z,24.42
2022-08-05T19:04:05.365Z,24.28
2022-08-05T19:09:10.329Z,24.18
2022-08-05T19:14:52.132Z,24.11
2022-08-05T19:19:37.095Z,23.97
2022-08-05T19:24:56.323Z,23.85
2022-08-05T19:30:02.850Z,23.68
2022-08-05T19:35:08.334Z,23.56
2022-08-05T19:40:15.047Z,23.49
2022-08-05T19:45:18.649Z,23.32
2022-08-05T19:50:21.986Z,23.22
2022-08-05T19:56:14.733Z,23.14
2022-08-05T20:00:53.380Z,22.91
2022-08-05T20:05:56.806Z,22.85
2022-08-05T20:11:03.132Z,22.75
2022-08-05T20:16:06.915Z,22.63
2022-08-05T20:21:10.826Z,22.57
2022-08-05T20:26:17.264Z,22.50
2022-08-05T20:31:22.849Z,22.36
2022-08-05T20:36:31.828Z,22.24
2022-08-05T20:41:44.175Z,22.22
2022-08-05T20:46:48.768Z,22.04
2022-08-05T20:51:53.441Z,22.03
2022-08-05T20:56:59.085Z,21.93
2022-08-05T21:02:02.419Z,21.81
2022-08-05T21:07:08.955Z,21.74
2022-08-05T21:12:13.808Z,21.69
2022-08-05T21:17:20.581Z,21.57
2022-08-05T21:22:25.395Z,21.51
2022-08-05T21:27:38.601Z,21.48
2022-08-05T21:32:42.355Z,21.32
2022-08-05T21:37:53.174Z,21.22
2022-08-05T21:42:59.256Z,21.09
2022-08-05T21:48:06.417Z,20.94
2022-08-05T21:53:16.694Z,20.95
2022-08-05T21:58:24.990Z,20.89
2022-08-05T22:03:52.018Z,20.84
2022-08-05T22:08:56.695Z,20.75
2022-08-05T22:14:34.386Z,20.68
2022-08-05T22:19:57.414Z,20.57
2022-08-05T22:25:08.760Z,20.52
2022-08-05T22:30:35.359Z,20.52
2022-08-05T22:35:49.221Z,20.47
2022-08-05T22:40:54.858Z,20.37
2022-08-05T22:46:00.098Z,20.35
2022-08-05T22:51:07.050Z,20.31
2022-08-05T22:56:10.678Z,20.25
2022-08-05T23:01:17.937Z,20.21
2022-08-05T23:06:26.374Z,20.17
2022-08-05T23:11:30.209Z,20.12
2022-08-05T23:16:52.932Z,20.09
2022-08-05T23:21:56.210Z,20.00
2022-08-05T23:26:59.693Z,19.97
2022-08-05T23:32:06.054Z,20.01
2022-08-05T23:37:09.405Z,19.98
2022-08-05T23:42:14.812Z,20.00
2022-08-05T23:47:28.377Z,19.96
2022-08-05T23:52:49.745Z,19.87
2022-08-05T23:57:54.055Z,19.84
